Time;durP1;ratioP1;P1;durP2;ratioP2;P2;SDS_P1;SDS_P2;PMS_P1;PMS_P2;Temp;Humidity;BMP_temperature;BMP_pressure;BME280_temperature;BME280_humidity;BME280_pressure;Samples;Min_cycle;Max_cycle;Signal;HPM_P1;HPM_P2
2021/05/05 00:00:31;;;;;;;7.17;4.08;;;;;;;6.34;55.46;96661.79;1693716;84;21125;-74
2021/05/05 00:03:00;;;;;;;6.30;4.37;;;;;;;6.31;55.49;96661.51;1693233;85;21603;-74
2021/05/05 00:05:27;;;;;;;6.50;3.83;;;;;;;6.29;55.42;96654.72;1693330;84;21141;-74
2021/05/05 00:07:55;;;;;;;8.00;4.22;;;;;;;6.26;55.31;96657.08;1693212;85;21176;-75
2021/05/05 00:10:22;;;;;;;6.05;3.92;;;;;;;6.23;55.42;96652.91;1693383;85;21606;-74
2021/05/05 00:12:50;;;;;;;7.00;3.40;;;;;;;6.20;55.52;96654.91;1693489;85;21578;-75
2021/05/05 00:15:21;;;;;;;8.00;3.67;;;;;;;6.17;55.69;96652.00;1693179;84;21593;-75
2021/05/05 00:17:49;;;;;;;7.40;3.77;;;;;;;6.15;56.25;96656.53;1688272;85;21602;-75
2021/05/05 00:20:20;;;;;;;6.65;3.37;;;;;;;6.14;55.93;96656.16;1688315;85;21547;-75
2021/05/05 00:22:51;;;;;;;5.58;3.30;;;;;;;6.13;55.83;96647.95;1688387;85;21193;-76
2021/05/05 00:25:20;;;;;;;4.35;3.37;;;;;;;6.14;55.85;96647.45;1688714;85;21283;-75
2021/05/05 00:27:50;;;;;;;4.53;3.40;;;;;;;6.13;55.92;96650.56;1688221;85;21189;-75
2021/05/05 00:30:20;;;;;;;5.92;3.45;;;;;;;6.09;55.88;96644.70;1675482;85;21587;-75
2021/05/05 00:32:48;;;;;;;4.00;2.55;;;;;;;6.08;55.83;96643.48;1687733;85;21592;-76
2021/05/05 00:35:15;;;;;;;5.33;3.08;;;;;;;6.07;55.63;96644.45;1687667;85;21161;-75
2021/05/05 00:37:43;;;;;;;5.50;3.10;;;;;;;6.03;55.93;96642.49;1686472;84;21183;-75
2021/05/05 00:40:12;;;;;;;4.67;3.27;;;;;;;6.01;56.01;96639.17;1692250;85;21175;-74
2021/05/05 00:42:40;;;;;;;6.55;2.85;;;;;;;6.00;56.28;96628.79;1692306;84;21180;-75
2021/05/05 00:45:12;;;;;;;5.17;3.10;;;;;;;6.00;56.32;96633.56;1683091;84;21144;-75
2021/05/05 00:47:40;;;;;;;7.65;3.33;;;;;;;6.00;56.47;96631.41;1675834;85;21184;-75
2021/05/05 00:50:12;;;;;;;4.15;2.98;;;;;;;6.00;56.23;96630.09;1676316;85;21208;-74
2021/05/05 00:52:40;;;;;;;6.50;2.90;;;;;;;6.03;56.20;96635.13;1692183;84;21176;-76
2021/05/05 00:55:11;;;;;;;7.12;2.92;;;;;;;6.06;56.50;96640.16;1685156;84;21153;-73
2021/05/05 00:57:39;;;;;;;4.12;3.02;;;;;;;6.09;56.28;96634.69;1680530;85;21617;-75
2021/05/05 01:00:10;;;;;;;4.45;2.85;;;;;;;6.12;56.51;96638.41;1672311;86;21754;-75
2021/05/05 01:02:38;;;;;;;4.45;2.65;;;;;;;6.14;56.47;96639.16;1672159;86;21162;-75
2021/05/05 01:05:09;;;;;;;3.55;2.65;;;;;;;6.18;56.23;96638.46;1679171;85;21579;-75
2021/05/05 01:07:37;;;;;;;4.03;2.77;;;;;;;6.20;56.32;96640.02;1679893;85;21656;-76
2021/05/05 01:10:10;;;;;;;6.55;2.90;;;;;;;6.21;56.16;96631.23;1681789;85;21151;-75
2021/05/05 01:12:41;;;;;;;7.17;2.90;;;;;;;6.22;56.35;96634.22;1693950;85;21152;-75
2021/05/05 01:15:32;;;;;;;5.12;3.37;;;;;;;6.22;57.23;96636.83;1693813;85;21319;-72
2021/05/05 01:17:59;;;;;;;5.65;3.47;;;;;;;6.20;56.99;96637.41;1717780;83;21122;-75
2021/05/05 01:20:29;;;;;;;6.60;3.35;;;;;;;6.19;56.80;96640.14;1725904;83;21147;-75
2021/05/05 01:22:57;;;;;;;5.65;4.20;;;;;;;6.17;56.86;96641.53;1726088;83;21135;-75
2021/05/05 01:25:24;;;;;;;6.25;4.03;;;;;;;6.15;57.11;96636.05;1725988;83;21588;-75
2021/05/05 01:27:52;;;;;;;7.08;3.90;;;;;;;6.12;57.11;96638.41;1726110;83;21143;-75
2021/05/05 01:30:22;;;;;;;6.28;4.22;;;;;;;6.09;57.17;96636.86;1726033;83;21116;-75
2021/05/05 01:32:50;;;;;;;8.78;4.05;;;;;;;6.06;57.45;96627.08;1726117;83;21131;-75
2021/05/05 01:35:20;;;;;;;5.25;3.80;;;;;;;6.05;57.47;96629.33;1726012;83;21144;-74
2021/05/05 01:37:49;;;;;;;5.40;3.83;;;;;;;6.02;57.55;96629.53;1726051;83;21586;-75
2021/05/05 01:40:32;;;;;;;6.85;3.98;;;;;;;5.98;58.18;96631.49;1726087;83;21166;-75
2021/05/05 01:43:03;;;;;;;10.58;4.62;;;;;;;5.94;58.06;96630.02;1726146;83;21610;-75
2021/05/05 01:45:31;;;;;;;6.70;4.42;;;;;;;5.91;58.26;96632.86;1726059;83;21105;-76
2021/05/05 01:48:04;;;;;;;9.90;4.30;;;;;;;5.91;57.99;96629.77;1726017;83;21149;-75
2021/05/05 01:50:33;;;;;;;7.80;4.40;;;;;;;5.93;58.19;96627.06;1726248;83;21132;-76
2021/05/05 01:53:01;;;;;;;6.37;4.00;;;;;;;5.94;58.79;96618.24;1726069;83;21226;-75
2021/05/05 01:55:29;;;;;;;8.63;4.20;;;;;;;5.99;58.75;96625.35;1726089;83;21128;-75
2021/05/05 01:57:57;;;;;;;9.30;3.77;;;;;;;6.05;59.54;96621.48;1715267;83;21159;-74
2021/05/05 02:00:31;;;;;;;6.70;3.33;;;;;;;6.12;59.18;96615.34;1697027;83;21603;-76
2021/05/05 02:03:03;;;;;;;7.40;3.30;;;;;;;6.18;59.42;96609.67;1697094;84;21182;-75
2021/05/05 02:05:42;;;;;;;5.67;3.40;;;;;;;6.33;59.68;96599.91;1779849;79;22742;-74
2021/05/05 02:08:13;;;;;;;7.22;3.22;;;;;;;6.37;59.37;96598.73;1752887;82;21156;-74
2021/05/05 02:10:45;;;;;;;5.37;3.65;;;;;;;6.49;59.42;96593.94;1695077;83;21135;-76
2021/05/05 02:13:13;;;;;;;7.75;3.58;;;;;;;6.57;59.44;96593.39;1724031;83;21184;-76
2021/05/05 02:15:41;;;;;;;5.97;3.65;;;;;;;6.62;59.32;96592.57;1719783;82;21188;-75
2021/05/05 02:18:10;;;;;;;5.33;3.40;;;;;;;6.69;59.25;96585.11;1724160;83;21289;-75
2021/05/05 02:20:39;;;;;;;13.78;3.85;;;;;;;6.75;59.24;96585.96;1724090;83;21736;-74
2021/05/05 02:23:08;;;;;;;6.22;3.83;;;;;;;6.79;58.98;96583.95;1724164;83;21144;-74
2021/05/05 02:25:36;;;;;;;6.80;3.98;;;;;;;6.82;58.80;96574.08;1695317;83;21164;-75
2021/05/05 02:28:05;;;;;;;9.65;4.28;;;;;;;6.83;58.55;96571.00;1723887;82;21581;-75
2021/05/05 02:30:37;;;;;;;5.47;3.27;;;;;;;6.84;58.41;96573.98;1725570;82;21160;-76
2021/05/05 02:33:07;;;;;;;5.25;4.05;;;;;;;6.84;58.25;96576.61;1753377;82;21673;-76
2021/05/05 02:35:34;;;;;;;7.95;3.20;;;;;;;6.80;58.24;96574.69;1754047;82;21120;-75
2021/05/05 02:38:04;;;;;;;4.12;3.10;;;;;;;6.76;57.97;96580.27;1754380;81;21171;-75
2021/05/05 02:40:34;;;;;;;8.30;3.75;;;;;;;6.70;58.20;96577.13;1753875;81;21168;-75
2021/05/05 02:43:02;;;;;;;6.30;2.90;;;;;;;6.66;58.35;96568.30;1724475;82;21132;-75
2021/05/05 02:45:30;;;;;;;6.50;3.40;;;;;;;6.62;58.10;96564.25;1721777;82;21526;-75
2021/05/05 02:47:58;;;;;;;4.83;3.02;;;;;;;6.54;58.84;96559.07;1691951;85;21166;-76
2021/05/05 02:50:26;;;;;;;4.12;3.00;;;;;;;6.49;60.42;96551.22;1691165;84;21134;-76
2021/05/05 02:52:54;;;;;;;7.30;3.87;;;;;;;6.44;58.96;96550.70;1713293;84;21168;-75
2021/05/05 02:55:23;;;;;;;5.78;3.85;;;;;;;6.36;59.20;96546.00;1713172;83;21614;-75
2021/05/05 02:57:51;;;;;;;8.20;4.20;;;;;;;6.32;58.94;96547.19;1697178;84;21212;-75
2021/05/05 03:00:20;;;;;;;9.75;4.20;;;;;;;6.28;58.90;96549.19;1658748;85;21151;-75
2021/05/05 03:02:49;;;;;;;5.70;3.65;;;;;;;6.24;59.02;96557.73;1692920;84;21167;-76
2021/05/05 03:05:19;;;;;;;7.70;3.85;;;;;;;6.23;59.11;96553.45;1678913;85;21129;-75
2021/05/05 03:07:46;;;;;;;4.75;3.60;;;;;;;6.23;59.13;96553.91;1695889;85;21153;-75
2021/05/05 03:10:14;;;;;;;26.65;5.80;;;;;;;6.22;59.35;96551.77;1698957;83;21140;-76
2021/05/05 03:12:42;;;;;;;10.53;3.20;;;;;;;6.20;59.62;96556.77;1724793;83;21161;-75
2021/05/05 03:15:11;;;;;;;5.00;3.52;;;;;;;6.19;60.08;96555.91;1724562;83;21143;-74
2021/05/05 03:17:38;;;;;;;9.15;4.03;;;;;;;6.16;59.92;96560.07;1724313;83;21148;-75
2021/05/05 03:20:09;;;;;;;7.90;5.67;;;;;;;6.14;59.84;96552.80;1697102;83;21293;-76
2021/05/05 03:22:37;;;;;;;14.47;4.75;;;;;;;6.12;59.97;96555.98;1695406;85;21577;-75
2021/05/05 03:25:08;;;;;;;11.78;5.60;;;;;;;6.10;60.42;96557.87;1707106;83;21127;-75
2021/05/05 03:27:35;;;;;;;10.25;5.45;;;;;;;6.09;60.18;96558.35;1724342;83;21717;-75
2021/05/05 03:30:06;;;;;;;7.87;5.10;;;;;;;6.09;59.96;96558.81;1724192;83;21120;-76
2021/05/05 03:32:35;;;;;;;8.48;5.45;;;;;;;6.11;59.74;96555.62;1724364;83;21144;-75
2021/05/05 03:35:04;;;;;;;7.70;5.65;;;;;;;6.14;59.91;96555.41;1724280;83;21155;-74
2021/05/05 03:37:31;;;;;;;13.75;5.15;;;;;;;6.17;59.92;96559.09;1724237;83;21270;-75
2021/05/05 03:39:59;;;;;;;12.28;5.30;;;;;;;6.21;60.13;96561.88;1710932;83;21277;-74
2021/05/05 03:42:28;;;;;;;12.88;4.42;;;;;;;6.28;60.14;96562.73;1695231;85;21140;-75
2021/05/05 03:44:55;;;;;;;8.33;4.72;;;;;;;6.35;59.88;96560.89;1695602;84;21159;-75
2021/05/05 03:47:22;;;;;;;10.35;5.08;;;;;;;6.47;60.14;96567.50;1697058;83;21314;-75
2021/05/05 03:49:50;;;;;;;11.97;5.00;;;;;;;6.55;60.43;96570.40;1659411;86;21169;-75
2021/05/05 03:52:17;;;;;;;8.23;4.33;;;;;;;6.65;60.32;96570.09;1724334;83;21140;-75
2021/05/05 03:54:44;;;;;;;6.05;4.17;;;;;;;6.77;60.29;96575.39;1724328;83;21104;-75
2021/05/05 03:57:12;;;;;;;9.98;4.22;;;;;;;6.88;60.12;96577.58;1724190;83;21322;-75
2021/05/05 03:59:40;;;;;;;7.97;3.65;;;;;;;7.01;59.58;96584.52;1724291;83;21155;-75
2021/05/05 04:02:07;;;;;;;13.00;3.17;;;;;;;7.13;59.71;96582.80;1724423;83;21306;-75
2021/05/05 04:04:34;;;;;;;6.83;3.33;;;;;;;7.25;59.33;96579.72;1723649;83;21583;-75
2021/05/05 04:07:02;;;;;;;8.43;3.15;;;;;;;7.35;59.68;96581.52;1723623;83;21689;-76
2021/05/05 04:09:30;;;;;;;15.10;3.75;;;;;;;7.45;59.54;96590.00;1724352;83;21586;-74
2021/05/05 04:11:58;;;;;;;15.43;4.17;;;;;;;7.52;59.47;96582.03;1724195;83;21152;-75
2021/05/05 04:14:25;;;;;;;6.75;4.12;;;;;;;7.57;59.36;96583.84;1715556;83;21136;-75
2021/05/05 04:17:10;;;;;;;7.55;4.50;;;;;;;7.61;59.27;96581.32;1659566;86;21180;-75
2021/05/05 04:19:56;;;;;;;11.25;4.90;;;;;;;7.65;59.27;96580.15;1709365;83;21136;-76
2021/05/05 04:22:43;;;;;;;8.30;4.42;;;;;;;7.71;59.04;96581.93;1695409;84;21310;-75
2021/05/05 04:25:29;;;;;;;13.78;4.95;;;;;;;7.74;58.73;96587.80;1695671;85;21184;-75
2021/05/05 04:27:56;;;;;;;7.67;4.70;;;;;;;7.80;59.25;96586.00;1695208;85;21290;-75
2021/05/05 04:30:24;;;;;;;9.78;4.83;;;;;;;7.86;58.63;96584.70;1695342;85;21597;-75
2021/05/05 04:32:52;;;;;;;16.17;4.95;;;;;;;7.91;58.61;96588.28;1695273;85;21633;-75
2021/05/05 04:35:21;;;;;;;7.87;4.75;;;;;;;7.96;58.54;96580.88;1701383;83;21282;-76
2021/05/05 04:37:48;;;;;;;10.63;5.25;;;;;;;8.10;58.70;96585.89;1724113;83;21132;-75
2021/05/05 04:40:15;;;;;;;16.80;5.80;;;;;;;8.08;58.99;96569.42;1700165;83;21311;-76
2021/05/05 04:42:43;;;;;;;17.23;5.40;;;;;;;8.23;58.60;96571.78;1724398;83;21140;-76
2021/05/05 04:45:11;;;;;;;18.17;6.45;;;;;;;8.24;58.74;96564.27;1725202;83;21155;-76
2021/05/05 04:47:39;;;;;;;17.75;5.80;;;;;;;8.24;58.74;96564.27;1724723;83;21143;-75
2021/05/05 04:50:10;;;;;;;14.10;5.78;;;;;;;8.26;58.63;96571.55;1697358;83;21136;-75
2021/05/05 04:52:38;;;;;;;22.15;5.58;;;;;;;8.30;58.56;96563.80;1699415;83;21124;-75
2021/05/05 04:55:08;;;;;;;14.13;7.42;;;;;;;8.43;58.36;96557.91;1722087;83;21313;-75
2021/05/05 04:57:35;;;;;;;17.67;6.08;;;;;;;8.49;58.35;96566.30;1724142;82;21159;-75
2021/05/05 05:00:06;;;;;;;17.73;6.30;;;;;;;8.61;58.20;96569.72;1724295;83;21156;-75
2021/05/05 05:02:34;;;;;;;13.20;7.47;;;;;;;8.73;58.00;96572.65;1724067;83;21771;-74
2021/05/05 05:05:04;;;;;;;9.63;6.03;;;;;;;8.86;57.56;96569.88;1711389;83;21139;-75
2021/05/05 05:07:32;;;;;;;22.50;6.30;;;;;;;9.01;57.56;96565.98;1695436;84;21172;-75
2021/05/05 05:10:00;;;;;;;15.72;7.20;;;;;;;9.13;57.32;96572.52;1695154;85;21242;-75
2021/05/05 05:12:27;;;;;;;12.53;5.92;;;;;;;9.16;57.11;96569.14;1681952;83;21136;-76
2021/05/05 05:14:55;;;;;;;11.10;5.65;;;;;;;9.29;56.95;96576.84;1724187;83;21274;-77
2021/05/05 05:17:23;;;;;;;8.80;5.80;;;;;;;9.41;56.68;96572.34;1699021;83;21151;-74
2021/05/05 05:19:50;;;;;;;10.40;4.35;;;;;;;9.48;56.49;96564.78;1695578;85;21179;-75
2021/05/05 05:22:18;;;;;;;12.58;5.87;;;;;;;9.59;56.25;96563.39;1696845;83;21180;-75
2021/05/05 05:24:47;;;;;;;9.50;5.20;;;;;;;9.49;55.42;96565.13;1716747;83;21569;-75
2021/05/05 05:27:14;;;;;;;21.80;8.38;;;;;;;9.51;55.94;96564.53;1721982;83;21151;-76
2021/05/05 05:29:41;;;;;;;20.02;6.33;;;;;;;9.55;55.85;96566.41;1724287;83;21152;-75
2021/05/05 05:32:09;;;;;;;11.12;6.22;;;;;;;9.68;55.87;96575.77;1697317;83;21140;-76
2021/05/05 05:34:37;;;;;;;14.50;6.20;;;;;;;9.80;55.58;96576.98;1695557;85;21526;-75
2021/05/05 05:37:04;;;;;;;10.20;5.60;;;;;;;9.89;55.50;96568.30;1695230;85;21318;-75
2021/05/05 05:39:31;;;;;;;18.60;5.65;;;;;;;10.00;55.26;96571.34;1694995;85;21152;-76
2021/05/05 05:41:59;;;;;;;19.62;6.45;;;;;;;10.13;55.04;96561.89;1695199;84;21225;-75
2021/05/05 05:44:26;;;;;;;14.65;6.00;;;;;;;10.21;54.66;96566.50;1659217;86;21188;-75
2021/05/05 05:46:53;;;;;;;14.30;7.08;;;;;;;10.29;54.60;96565.34;1720875;83;21557;-76
2021/05/05 05:49:21;;;;;;;11.00;6.30;;;;;;;10.33;54.24;96559.31;1724065;83;21235;-75
2021/05/05 05:51:48;;;;;;;11.50;6.45;;;;;;;10.39;54.32;96564.92;1724006;83;21120;-75
2021/05/05 05:54:17;;;;;;;22.48;7.00;;;;;;;10.48;54.26;96555.84;1722792;83;21140;-73
2021/05/05 05:56:44;;;;;;;15.30;7.30;;;;;;;10.55;53.97;96560.42;1722485;82;21294;-74
2021/05/05 05:59:12;;;;;;;13.72;6.78;;;;;;;10.61;53.75;96561.68;1719611;83;21188;-73
2021/05/05 06:01:40;;;;;;;12.30;8.10;;;;;;;10.74;53.75;96570.64;1702658;83;21175;-76
2021/05/05 06:04:07;;;;;;;16.30;7.37;;;;;;;10.87;53.56;96568.58;1714028;83;21162;-75
2021/05/05 06:06:35;;;;;;;11.05;6.80;;;;;;;11.03;53.36;96568.50;1712323;83;21132;-76
2021/05/05 06:09:03;;;;;;;11.83;7.30;;;;;;;11.14;53.09;96565.73;1685595;83;21208;-77
2021/05/05 06:11:31;;;;;;;12.93;6.28;;;;;;;11.23;52.49;96562.72;1708730;84;21215;-83
2021/05/05 06:14:00;;;;;;;15.95;7.95;;;;;;;11.28;52.38;96554.39;1710902;84;21153;-80
2021/05/05 06:16:27;;;;;;;18.27;7.35;;;;;;;11.29;52.31;96558.70;1708472;84;21184;-77
2021/05/05 06:18:55;;;;;;;16.97;6.65;;;;;;;11.43;52.00;96545.08;1706418;83;21160;-78
2021/05/05 06:21:23;;;;;;;16.95;7.42;;;;;;;11.50;51.47;96548.80;1710438;84;21176;-78
2021/05/05 06:23:54;;;;;;;10.75;6.37;;;;;;;11.57;51.11;96549.08;1710468;83;21234;-75
2021/05/05 06:26:22;;;;;;;10.58;6.70;;;;;;;11.79;50.90;96550.53;1689343;84;21148;-77
2021/05/05 06:28:49;;;;;;;12.80;7.20;;;;;;;12.00;50.14;96549.52;1706606;84;21140;-77
2021/05/05 06:31:20;;;;;;;21.02;6.58;;;;;;;12.22;50.05;96546.13;1703352;84;21144;-79
2021/05/05 06:33:47;;;;;;;15.38;6.65;;;;;;;12.33;48.04;96547.27;1709626;84;21184;-77
2021/05/05 06:36:14;;;;;;;9.08;4.92;;;;;;;12.26;47.56;96538.27;1710455;83;21180;-79
2021/05/05 06:38:41;;;;;;;9.03;4.17;;;;;;;12.24;47.70;96532.30;1710355;84;21141;-79
2021/05/05 06:41:08;;;;;;;9.73;5.17;;;;;;;12.28;47.55;96529.71;1710449;83;21145;-78
2021/05/05 06:43:36;;;;;;;11.60;6.00;;;;;;;12.24;47.22;96530.97;1710132;84;21161;-77
2021/05/05 06:46:04;;;;;;;16.42;7.00;;;;;;;12.33;47.34;96530.94;1689055;84;21133;-77
2021/05/05 06:48:31;;;;;;;10.15;5.92;;;;;;;12.52;47.83;96525.66;1710241;84;21622;-77
2021/05/05 06:50:59;;;;;;;12.70;6.62;;;;;;;12.80;46.41;96520.66;1710186;83;21113;-78
2021/05/05 06:53:28;;;;;;;10.35;5.22;;;;;;;12.86;46.84;96527.63;1710403;84;21148;-78
2021/05/05 06:55:56;;;;;;;10.98;6.87;;;;;;;12.83;46.19;96523.48;1710753;84;21152;-77
2021/05/05 06:58:24;;;;;;;9.18;5.22;;;;;;;12.80;46.42;96511.90;1706107;82;21117;-77
2021/05/05 07:00:52;;;;;;;17.62;6.92;;;;;;;12.91;45.94;96513.47;1707623;83;21125;-78
2021/05/05 07:03:20;;;;;;;24.27;6.80;;;;;;;12.92;46.00;96509.34;1681936;85;21290;-79
2021/05/05 07:05:47;;;;;;;9.08;4.75;;;;;;;12.92;46.45;96505.88;1706651;83;21136;-77
2021/05/05 07:08:14;;;;;;;24.40;7.22;;;;;;;13.06;46.64;96505.33;1710656;84;21144;-77
2021/05/05 07:10:42;;;;;;;18.45;5.58;;;;;;;13.10;46.24;96509.34;1710498;84;21222;-78
2021/05/05 07:13:09;;;;;;;12.95;5.50;;;;;;;13.18;46.75;96509.05;1710325;84;21124;-80
2021/05/05 07:15:36;;;;;;;20.85;8.28;;;;;;;13.21;46.98;96512.22;1710472;84;21559;-78
2021/05/05 07:18:04;;;;;;;19.25;6.33;;;;;;;13.25;47.03;96508.77;1710457;84;21176;-78
2021/05/05 07:20:31;;;;;;;17.85;8.38;;;;;;;13.27;47.24;96501.52;1686189;83;21147;-77
2021/05/05 07:22:58;;;;;;;17.32;7.62;;;;;;;13.19;47.51;96485.58;1682357;85;21121;-78
2021/05/05 07:25:26;;;;;;;16.17;7.50;;;;;;;13.44;47.86;96502.49;1683545;84;21720;-75
2021/05/05 07:27:53;;;;;;;21.80;8.60;;;;;;;13.62;47.42;96499.77;1692157;83;21495;-79
2021/05/05 07:30:21;;;;;;;14.30;6.80;;;;;;;13.72;47.13;96495.20;1707602;84;21136;-75
2021/05/05 07:32:51;;;;;;;22.93;7.87;;;;;;;13.81;47.22;96489.94;1685709;84;21164;-80
2021/05/05 07:35:19;;;;;;;19.62;8.65;;;;;;;13.92;47.21;96480.89;1686289;84;21169;-81
2021/05/05 07:45:44;;;;;;;17.62;9.35;;;;;;;14.78;46.16;96467.03;1681983;85;21192;-77
2021/05/05 07:48:09;;;;;;;15.32;7.97;;;;;;;15.09;46.26;96472.98;1681191;84;21168;-74
2021/05/05 07:50:35;;;;;;;18.23;10.18;;;;;;;15.41;45.73;96469.97;1710378;84;21181;-80
2021/05/05 07:53:03;;;;;;;18.23;7.42;;;;;;;15.57;45.06;96468.59;1686305;84;21152;-79
2021/05/05 07:55:30;;;;;;;14.20;7.40;;;;;;;15.83;44.89;96470.17;1689150;84;21607;-78
2021/05/05 07:57:57;;;;;;;13.22;7.70;;;;;;;16.06;44.99;96456.17;1706964;82;21168;-77
2021/05/05 08:00:24;;;;;;;22.40;9.85;;;;;;;16.16;44.33;96452.80;1708223;83;21598;-76
2021/05/05 08:02:52;;;;;;;23.25;11.50;;;;;;;15.99;44.75;96447.23;1710599;84;21165;-78
2021/05/05 08:05:20;;;;;;;18.90;9.83;;;;;;;16.03;45.29;96445.88;1708406;83;21598;-82
2021/05/05 08:07:50;;;;;;;19.85;10.03;;;;;;;16.18;45.29;96449.95;1710379;84;21161;-79
2021/05/05 08:10:16;;;;;;;17.02;8.88;;;;;;;15.89;45.53;96449.61;1700879;84;21229;-79
2021/05/05 08:12:44;;;;;;;17.82;6.50;;;;;;;15.71;45.86;96448.47;1683079;84;21136;-79
2021/05/05 08:15:13;;;;;;;11.45;5.08;;;;;;;15.58;46.21;96441.04;1682087;85;21148;-83
2021/05/05 08:17:41;;;;;;;15.75;6.42;;;;;;;15.37;46.75;96438.95;1683851;84;21140;-82
2021/05/05 08:20:11;;;;;;;19.67;8.10;;;;;;;15.04;47.57;96436.33;1637623;87;21172;-83
2021/05/05 08:22:38;;;;;;;14.95;7.00;;;;;;;14.85;47.96;96438.03;1644990;87;21175;-85
2021/05/05 08:25:07;;;;;;;14.53;7.15;;;;;;;14.78;48.24;96433.87;1631243;87;21581;-80
2021/05/05 08:27:34;;;;;;;24.35;9.60;;;;;;;14.85;48.28;96436.19;1698574;84;21209;-87
2021/05/05 08:30:04;;;;;;;13.98;7.75;;;;;;;14.91;48.37;96438.67;1708946;84;21165;-81
2021/05/05 08:32:31;;;;;;;14.98;6.75;;;;;;;15.00;48.33;96435.02;1709048;84;21611;-86
2021/05/05 08:34:59;;;;;;;13.85;5.67;;;;;;;15.11;48.14;96434.69;1709048;84;21555;-85
2021/05/05 08:37:26;;;;;;;13.28;5.65;;;;;;;15.23;47.95;96436.48;1708936;83;21654;-83
2021/05/05 08:39:53;;;;;;;19.37;7.60;;;;;;;15.33;47.79;96428.83;1709023;84;21181;-80
2021/05/05 08:42:21;;;;;;;17.42;6.60;;;;;;;15.38;47.71;96433.13;1709043;83;21555;-84
2021/05/05 08:44:52;;;;;;;12.05;5.60;;;;;;;15.46;47.58;96435.75;1709219;83;21610;-82
2021/05/05 08:47:20;;;;;;;11.93;5.87;;;;;;;15.61;47.27;96437.20;1709048;84;21192;-83
2021/05/05 08:49:49;;;;;;;12.40;5.20;;;;;;;15.57;47.12;96435.91;1709151;83;21196;-82
2021/05/05 08:52:16;;;;;;;10.55;5.78;;;;;;;15.49;47.36;96430.62;1709175;83;21189;-85
2021/05/05 08:54:44;;;;;;;9.85;4.62;;;;;;;15.51;47.55;96430.78;1709343;83;21258;-85
2021/05/05 08:57:14;;;;;;;12.88;6.75;;;;;;;15.55;47.09;96424.11;1709025;84;21610;-83
2021/05/05 08:59:42;;;;;;;13.75;6.45;;;;;;;15.51;47.33;96418.83;1709268;83;21188;-85
2021/05/05 09:02:10;;;;;;;8.60;5.50;;;;;;;15.61;47.15;96414.62;1709050;83;21137;-84
2021/05/05 09:04:38;;;;;;;14.05;6.33;;;;;;;15.70;47.05;96419.42;1708911;84;21619;-85
2021/05/05 09:07:06;;;;;;;10.93;4.00;;;;;;;15.88;47.08;96420.53;1714104;83;21172;-84
2021/05/05 09:09:44;;;;;;;9.18;3.30;;;;;;;16.02;46.73;96410.98;1716939;83;21598;-83
2021/05/05 09:12:22;;;;;;;9.40;2.75;;;;;;;16.23;45.25;96402.42;1716962;83;21330;-84
2021/05/05 09:15:08;;;;;;;5.67;2.60;;;;;;;16.51;44.59;96397.91;1716978;83;21322;-83
2021/05/05 09:17:44;;;;;;;5.25;2.65;;;;;;;16.84;43.91;96396.30;1717104;83;21745;-84
2021/05/05 09:20:18;;;;;;;;;;;;;;;17.19;41.66;96393.99;1719439;83;21388;-84
2021/05/05 09:23:02;;;;;;;5.00;2.62;;;;;;;17.48;39.23;96391.87;1716907;83;20187;-83
2021/05/05 09:25:34;;;;;;;7.30;2.10;;;;;;;17.76;40.61;96385.03;1716597;83;21184;-81
2021/05/05 09:28:25;;;;;;;7.20;1.70;;;;;;;18.07;39.79;96380.00;1716872;83;21729;-83
2021/05/05 09:30:55;;;;;;;4.45;2.05;;;;;;;18.37;38.42;96368.71;1716872;83;21295;-83
2021/05/05 09:33:33;;;;;;;3.15;1.70;;;;;;;18.70;37.50;96367.36;1716913;83;21334;-83
2021/05/05 09:36:07;;;;;;;10.40;2.65;;;;;;;18.98;36.80;96366.58;1717182;83;21156;-84
2021/05/05 09:38:50;;;;;;;4.97;2.50;;;;;;;19.34;36.10;96369.59;1715929;83;21172;-80
2021/05/05 09:41:28;;;;;;;;;;;;;;;19.68;35.55;96361.75;1710328;83;21119;-83
2021/05/05 09:44:07;;;;;;;5.75;2.08;;;;;;;20.01;33.86;96366.42;1718366;83;20148;-83
2021/05/05 09:46:45;;;;;;;2.75;1.60;;;;;;;20.32;35.01;96360.55;1718531;83;21186;-83
2021/05/05 09:49:26;;;;;;;5.45;1.98;;;;;;;20.50;32.87;96351.92;1717523;83;21310;-82
2021/05/05 09:52:15;;;;;;;3.00;1.85;;;;;;;20.56;33.04;96350.28;1718306;83;21303;-81
2021/05/05 09:54:59;;;;;;;5.35;1.45;;;;;;;20.73;31.93;96346.20;1718389;83;21630;-80
2021/05/05 09:57:31;;;;;;;4.70;1.70;;;;;;;20.88;32.49;96342.50;1689724;85;21735;-83
2021/05/05 10:00:10;;;;;;;4.85;1.82;;;;;;;20.98;31.25;96329.48;1689501;85;21160;-83
2021/05/05 10:02:50;;;;;;;4.50;1.92;;;;;;;21.16;31.26;96314.11;1689879;84;21689;-85
2021/05/05 10:05:26;;;;;;;4.40;1.50;;;;;;;21.22;30.96;96299.86;1689528;84;21585;-85
2021/05/05 10:08:03;;;;;;;6.87;1.70;;;;;;;21.21;30.59;96300.89;1683177;84;21656;-81
2021/05/05 10:10:34;;;;;;;3.05;1.67;;;;;;;21.27;30.88;96299.77;1682333;85;21129;-84
2021/05/05 10:13:05;;;;;;;2.90;1.47;;;;;;;21.31;31.20;96295.61;1681902;85;21602;-82
2021/05/05 10:15:36;;;;;;;3.95;2.40;;;;;;;21.22;30.30;96282.98;1682022;85;21161;-83
2021/05/05 10:18:08;;;;;;;2.85;1.72;;;;;;;21.19;30.00;96286.91;1682215;85;21205;-84
2021/05/05 10:20:36;;;;;;;4.85;1.95;;;;;;;21.11;30.48;96287.64;1681973;85;21184;-83
2021/05/05 10:23:05;;;;;;;2.87;1.50;;;;;;;21.05;30.44;96287.45;1682186;85;21164;-83
2021/05/05 10:25:33;;;;;;;4.20;1.42;;;;;;;21.00;30.82;96275.19;1693896;84;21526;-81
2021/05/05 10:28:01;;;;;;;1.77;1.12;;;;;;;20.96;30.52;96269.13;1678064;83;21223;-81
2021/05/05 10:30:32;;;;;;;3.37;1.72;;;;;;;20.81;30.27;96270.19;1706658;84;21531;-84
2021/05/05 10:33:02;;;;;;;2.55;1.20;;;;;;;20.75;30.58;96261.63;1699737;84;21132;-80
2021/05/05 10:35:37;;;;;;;2.47;1.67;;;;;;;20.89;30.57;96257.08;1709478;84;21136;-84
2021/05/05 10:38:05;;;;;;;7.85;1.60;;;;;;;21.10;29.89;96256.02;1682405;85;21136;-83
2021/05/05 10:40:36;;;;;;;8.03;1.95;;;;;;;21.14;29.68;96248.38;1682336;85;21161;-85
2021/05/05 10:43:06;;;;;;;2.50;1.70;;;;;;;21.08;29.94;96252.72;1682190;85;21152;-82
2021/05/05 10:45:38;;;;;;;2.40;1.82;;;;;;;21.12;29.59;96245.08;1682038;85;21159;-81
2021/05/05 10:48:16;;;;;;;8.50;2.05;;;;;;;21.11;29.41;96238.91;1680796;84;21705;-83
2021/05/05 10:50:54;;;;;;;5.45;1.77;;;;;;;21.11;29.78;96235.39;1710822;84;21160;-83
2021/05/05 10:53:26;;;;;;;3.80;1.50;;;;;;;21.18;30.08;96242.39;1693633;84;21555;-85
2021/05/05 10:55:59;;;;;;;4.47;2.20;;;;;;;21.34;29.82;96236.23;1706086;84;21570;-84
2021/05/05 10:58:32;;;;;;;5.92;1.87;;;;;;;21.48;29.62;96235.13;1686059;84;21183;-81
2021/05/05 11:01:06;;;;;;;3.12;1.80;;;;;;;21.69;29.51;96229.19;1704622;84;21562;-84
2021/05/05 11:03:49;;;;;;;5.10;3.02;;;;;;;21.77;29.39;96224.09;1682166;85;21306;-83
2021/05/05 11:06:38;;;;;;;5.08;1.90;;;;;;;21.88;29.17;96222.57;1682771;84;21296;-84
2021/05/05 11:09:16;;;;;;;4.55;2.10;;;;;;;22.00;28.71;96227.02;1700922;84;21137;-84
2021/05/05 11:11:47;;;;;;;4.75;2.12;;;;;;;22.07;28.44;96219.47;1699662;84;21184;-83
2021/05/05 11:14:32;;;;;;;10.60;2.47;;;;;;;22.00;29.00;96214.14;1702823;84;21625;-81
2021/05/05 11:17:09;;;;;;;4.65;2.25;;;;;;;22.00;29.52;96212.80;1700024;84;21136;-80
2021/05/05 11:19:43;;;;;;;3.83;1.92;;;;;;;21.99;28.97;96203.91;1693508;84;21199;-82
2021/05/05 11:22:26;;;;;;;3.55;1.92;;;;;;;21.93;29.44;96208.01;1705736;84;21140;-84
2021/05/05 11:24:54;;;;;;;5.12;2.10;;;;;;;21.86;30.07;96207.20;1686753;84;21143;-82
2021/05/05 11:27:51;;;;;;;5.72;1.82;;;;;;;21.66;30.45;96196.11;1703053;84;21159;-81
2021/05/05 11:30:42;;;;;;;4.35;1.90;;;;;;;21.51;30.78;96195.84;1708677;83;21132;-83
2021/05/05 11:33:10;;;;;;;3.27;2.05;;;;;;;21.49;30.81;96193.89;1677881;84;21143;-82
2021/05/05 11:35:40;;;;;;;15.32;13.00;;;;;;;21.47;30.99;96195.14;1696688;84;21176;-81
2021/05/05 11:38:19;;;;;;;7.25;3.12;;;;;;;21.55;31.29;96195.42;1699162;84;21136;-82
2021/05/05 11:40:56;;;;;;;4.60;2.60;;;;;;;21.75;30.95;96198.84;1678973;84;21351;-82
2021/05/05 11:43:32;;;;;;;;;;;;;;;21.93;29.08;96179.84;1826410;77;23045;-82
2021/05/05 11:46:03;;;;;;;4.60;2.20;;;;;;;21.90;28.77;96178.92;1786203;78;20414;-83
2021/05/05 11:48:36;;;;;;;3.52;2.08;;;;;;;21.92;28.35;96180.88;1774190;80;21128;-83
2021/05/05 11:51:22;;;;;;;3.02;1.70;;;;;;;21.94;28.14;96181.48;1758502;81;21208;-82
2021/05/05 11:53:50;;;;;;;3.30;2.00;;;;;;;21.98;27.93;96178.15;1766109;80;21118;-83
2021/05/05 11:56:25;;;;;;;4.85;1.95;;;;;;;22.13;27.89;96179.67;1767009;80;21135;-83